Time;durP1;ratioP1;P1;durP2;ratioP2;P2;SDS_P1;SDS_P2;PMS_P1;PMS_P2;Temp;Humidity;BMP_temperature;BMP_pressure;BME280_temperature;BME280_humidity;BME280_pressure;Samples;Min_cycle;Max_cycle;Signal;HPM_P1;HPM_P2
2024/01/31 00:01:35;;;;;;;13.57;4.22;;;;;;;5.51;100.00;103181.22;4984539;28;20030;-64
2024/01/31 00:04:00;;;;;;;9.52;4.28;;;;;;;5.51;100.00;103181.22;4982148;28;20097;-65
2024/01/31 00:06:26;;;;;;;8.27;4.80;;;;;;;5.49;100.00;103182.75;4968827;28;20035;-65
2024/01/31 00:08:51;;;;;;;14.82;4.82;;;;;;;5.49;100.00;103177.63;4982251;28;20463;-64
2024/01/31 00:11:16;;;;;;;7.93;4.07;;;;;;;5.47;100.00;103173.13;4980836;28;20101;-64
2024/01/31 00:13:42;;;;;;;13.07;4.38;;;;;;;5.46;100.00;103169.63;4986759;28;20034;-65
2024/01/31 00:16:07;;;;;;;14.45;4.88;;;;;;;5.46;100.00;103176.44;4976521;28;20054;-64
2024/01/31 00:18:32;;;;;;;11.48;4.93;;;;;;;5.44;100.00;103184.00;4980756;28;20037;-65
2024/01/31 00:20:57;;;;;;;8.05;3.88;;;;;;;5.44;100.00;103186.59;4970608;28;20461;-65
2024/01/31 00:23:24;;;;;;;6.50;4.15;;;;;;;5.41;100.00;103191.47;4986779;28;20034;-65
2024/01/31 00:25:50;;;;;;;10.82;4.30;;;;;;;5.40;100.00;103203.41;4975731;28;20023;-64
2024/01/31 00:28:15;;;;;;;18.67;5.10;;;;;;;5.39;100.00;103205.84;4975309;28;20057;-64
2024/01/31 00:30:41;;;;;;;9.57;4.57;;;;;;;5.38;100.00;103202.34;4975333;28;20456;-65
2024/01/31 00:33:06;;;;;;;8.85;4.05;;;;;;;5.37;100.00;103203.13;4976517;28;20030;-64
2024/01/31 00:35:31;;;;;;;7.43;4.25;;;;;;;5.37;100.00;103203.13;4998650;28;20029;-65
2024/01/31 00:37:56;;;;;;;11.68;4.95;;;;;;;5.36;100.00;103209.03;4980580;28;20026;-64
2024/01/31 00:40:22;;;;;;;10.82;4.53;;;;;;;5.35;100.00;103211.44;4981501;28;20030;-64
2024/01/31 00:42:48;;;;;;;10.35;4.32;;;;;;;5.35;100.00;103214.03;4986172;28;20356;-64
2024/01/31 00:45:14;;;;;;;16.15;4.82;;;;;;;5.34;100.00;103217.38;4997719;28;20034;-64
2024/01/31 00:47:40;;;;;;;13.98;4.38;;;;;;;5.32;100.00;103218.91;4972835;28;20073;-64
2024/01/31 00:50:06;;;;;;;12.25;4.18;;;;;;;5.31;100.00;103222.25;4952732;28;1050360;-64
2024/01/31 00:52:31;;;;;;;8.73;3.88;;;;;;;5.29;100.00;103219.50;4975323;28;20087;-65
2024/01/31 00:54:56;;;;;;;8.45;3.85;;;;;;;5.29;100.00;103224.66;4991752;28;20030;-65
2024/01/31 00:57:21;;;;;;;10.73;4.60;;;;;;;5.27;100.00;103216.78;4987097;28;20383;-64
2024/01/31 00:59:47;;;;;;;8.60;4.15;;;;;;;5.26;100.00;103224.38;4988344;28;20052;-64
2024/01/31 01:02:12;;;;;;;10.95;4.15;;;;;;;5.26;100.00;103221.78;4988171;28;20022;-64
2024/01/31 01:04:37;;;;;;;10.63;3.85;;;;;;;5.24;100.00;103221.66;4980230;28;20023;-64
2024/01/31 01:07:02;;;;;;;12.93;4.50;;;;;;;5.23;100.00;103226.66;4982744;28;20466;-65
2024/01/31 01:09:28;;;;;;;11.05;5.28;;;;;;;5.22;100.00;103230.91;4988080;28;20170;-64
2024/01/31 01:11:53;;;;;;;10.80;5.25;;;;;;;5.21;100.00;103236.81;4984658;28;20022;-65
2024/01/31 01:14:18;;;;;;;14.50;5.72;;;;;;;5.21;100.00;103225.63;4996124;28;20029;-64
2024/01/31 01:16:44;;;;;;;12.75;5.93;;;;;;;5.21;100.00;103235.91;4991235;28;20157;-64
2024/01/31 01:19:09;;;;;;;10.60;5.45;;;;;;;5.19;100.00;103238.34;4995853;28;20041;-65
2024/01/31 01:21:35;;;;;;;15.50;5.72;;;;;;;5.18;100.00;103236.50;4981242;28;20034;-64
2024/01/31 01:24:00;;;;;;;12.68;6.13;;;;;;;5.17;100.00;103245.00;4996141;28;20042;-64
2024/01/31 01:26:26;;;;;;;11.98;6.05;;;;;;;5.16;100.00;103235.50;4987353;28;20053;-64
2024/01/31 01:28:51;;;;;;;17.35;6.25;;;;;;;5.15;100.00;103236.22;4977984;28;20363;-64
2024/01/31 01:31:18;;;;;;;11.02;5.82;;;;;;;5.16;100.00;103238.06;4975824;28;20402;-64
2024/01/31 01:33:43;;;;;;;9.02;5.50;;;;;;;5.15;100.00;103236.22;4995310;28;20040;-65
2024/01/31 01:36:09;;;;;;;11.32;5.70;;;;;;;5.15;100.00;103238.81;4987137;28;20031;-64
2024/01/31 01:38:35;;;;;;;11.80;5.97;;;;;;;5.14;100.00;103234.44;4979580;28;20031;-64
2024/01/31 01:41:01;;;;;;;12.27;5.57;;;;;;;5.15;100.00;103238.81;4984103;28;20504;-64
2024/01/31 01:43:26;;;;;;;13.57;6.47;;;;;;;5.13;100.00;103238.66;4979530;28;20138;-64
2024/01/31 01:46:02;;;;;;;9.27;5.43;;;;;;;5.12;100.00;103239.44;4974236;28;20023;-64
2024/01/31 01:48:27;;;;;;;13.10;6.50;;;;;;;5.12;100.00;103241.09;4997378;28;20121;-64
2024/01/31 01:50:52;;;;;;;12.20;5.90;;;;;;;5.12;100.00;103235.94;4988387;28;20430;-64
2024/01/31 01:53:18;;;;;;;11.80;6.22;;;;;;;5.10;100.00;103234.91;4985868;28;20038;-64
2024/01/31 01:55:43;;;;;;;13.05;5.85;;;;;;;5.09;100.00;103233.09;4996898;28;20518;-64
2024/01/31 01:58:09;;;;;;;15.32;5.50;;;;;;;5.08;100.00;103228.72;4985254;28;20101;-65
2024/01/31 02:00:35;;;;;;;13.05;5.15;;;;;;;5.06;100.00;103226.00;5003927;28;20056;-64
2024/01/31 02:03:01;;;;;;;11.30;5.35;;;;;;;5.04;100.00;103233.56;4987539;28;20041;-64
2024/01/31 02:05:28;;;;;;;9.07;5.20;;;;;;;5.03;100.00;103220.59;4974401;28;20530;-64
2024/01/31 02:07:55;;;;;;;11.10;5.05;;;;;;;5.01;100.00;103225.59;4986855;28;20072;-64
2024/01/31 02:10:20;;;;;;;8.57;4.57;;;;;;;5.02;100.00;103229.03;4986569;28;21207;-64
2024/01/31 02:12:45;;;;;;;8.32;3.65;;;;;;;4.99;100.00;103229.66;4987486;28;20085;-64
2024/01/31 02:15:10;;;;;;;9.30;4.60;;;;;;;4.98;100.00;103233.03;4985715;28;20023;-64
2024/01/31 02:17:36;;;;;;;7.43;4.90;;;;;;;4.97;100.00;103236.31;4984573;28;20041;-64
2024/01/31 02:20:01;;;;;;;8.52;4.28;;;;;;;4.97;100.00;103223.47;4987139;28;20026;-64
2024/01/31 02:22:26;;;;;;;9.27;4.18;;;;;;;4.95;100.00;103217.28;4987440;28;20041;-64
2024/01/31 02:24:52;;;;;;;10.18;4.65;;;;;;;4.95;100.00;103224.13;4986196;28;20025;-64
2024/01/31 02:27:17;;;;;;;9.70;4.05;;;;;;;4.93;100.00;103226.50;4980512;28;20049;-64
2024/01/31 02:29:43;;;;;;;9.73;4.55;;;;;;;4.93;100.00;103226.50;4986533;28;20367;-64
2024/01/31 02:32:09;;;;;;;9.75;3.95;;;;;;;4.91;100.00;103221.22;4986229;28;20022;-64
2024/01/31 02:34:34;;;;;;;8.70;3.70;;;;;;;4.90;100.00;103219.44;4991155;28;20033;-64
2024/01/31 02:36:59;;;;;;;5.50;3.00;;;;;;;4.90;100.00;103223.66;4987279;28;20028;-64
2024/01/31 02:39:25;;;;;;;5.55;3.38;;;;;;;4.89;100.00;103227.00;4973462;28;20041;-64
2024/01/31 02:41:52;;;;;;;6.88;3.53;;;;;;;4.89;100.00;103237.28;4976800;28;20110;-64
2024/01/31 02:44:18;;;;;;;7.55;2.92;;;;;;;4.89;100.00;103227.00;4984910;28;20026;-64
2024/01/31 02:46:43;;;;;;;8.88;3.25;;;;;;;4.86;100.00;103222.47;4976748;28;20025;-64
2024/01/31 02:49:08;;;;;;;7.78;2.92;;;;;;;4.86;100.00;103229.25;4991647;28;20066;-64
2024/01/31 02:51:34;;;;;;;9.30;3.47;;;;;;;4.85;100.00;103224.91;4967508;28;20035;-64
2024/01/31 02:53:59;;;;;;;5.27;2.83;;;;;;;4.85;100.00;103219.75;4966847;28;20037;-64
2024/01/31 02:56:25;;;;;;;9.90;3.50;;;;;;;4.83;100.00;103221.28;4975301;28;20282;-64
2024/01/31 02:58:50;;;;;;;9.90;3.20;;;;;;;4.82;100.00;103224.63;4973175;28;20887;-64
2024/01/31 03:01:15;;;;;;;8.38;3.10;;;;;;;4.78;100.00;103214.06;4986443;28;20128;-64
2024/01/31 03:03:41;;;;;;;8.73;3.27;;;;;;;4.78;100.00;103219.19;4985802;28;20030;-64
2024/01/31 03:06:06;;;;;;;8.50;3.40;;;;;;;4.77;100.00;103212.22;4979624;28;20464;-64
2024/01/31 03:08:31;;;;;;;6.65;2.47;;;;;;;4.78;100.00;103208.94;4980690;28;20430;-64
2024/01/31 03:10:57;;;;;;;11.30;4.05;;;;;;;4.77;100.00;103201.03;4986261;28;20033;-64
2024/01/31 03:13:22;;;;;;;7.03;3.58;;;;;;;4.76;100.00;103200.16;4974209;28;20394;-64
2024/01/31 03:15:47;;;;;;;5.75;2.95;;;;;;;4.76;100.00;103204.38;4981747;28;20033;-64
2024/01/31 03:18:12;;;;;;;12.18;3.72;;;;;;;4.75;100.00;103200.91;4979465;28;20033;-64
2024/01/31 03:20:38;;;;;;;7.88;4.20;;;;;;;4.74;100.00;103201.69;4980435;28;20027;-64
2024/01/31 03:23:03;;;;;;;5.95;3.35;;;;;;;4.74;100.00;103200.75;4969156;28;20054;-64
2024/01/31 03:25:28;;;;;;;6.00;2.90;;;;;;;4.71;100.00;103201.41;4978610;28;20058;-64
2024/01/31 03:27:53;;;;;;;6.85;3.72;;;;;;;4.71;100.00;103197.91;4986218;28;20022;-64
2024/01/31 03:30:19;;;;;;;6.93;3.67;;;;;;;4.71;100.00;103188.56;4976369;28;20399;-64
2024/01/31 03:32:45;;;;;;;8.70;3.37;;;;;;;4.69;100.00;103193.53;4974360;28;20026;-64
2024/01/31 03:35:10;;;;;;;9.32;3.88;;;;;;;4.70;100.00;103189.28;4981223;28;20073;-64
2024/01/31 03:37:35;;;;;;;6.93;3.53;;;;;;;4.71;100.00;103187.66;4986249;28;20467;-64
2024/01/31 03:40:03;;;;;;;9.37;3.77;;;;;;;4.71;100.00;103183.41;4988519;28;20065;-64
2024/01/31 03:42:28;;;;;;;8.25;3.80;;;;;;;4.70;100.00;103189.28;4987943;28;20057;-64
2024/01/31 03:44:53;;;;;;;7.70;3.45;;;;;;;4.70;100.00;103179.03;4988587;28;20066;-64
2024/01/31 03:47:18;;;;;;;8.23;3.88;;;;;;;4.70;100.00;103184.16;4980066;28;20030;-64
2024/01/31 03:49:45;;;;;;;8.80;3.73;;;;;;;4.69;100.00;103180.69;4982470;28;20739;-64
2024/01/31 03:52:11;;;;;;;11.75;4.03;;;;;;;4.69;100.00;103178.09;4980327;28;20023;-64
2024/01/31 03:54:36;;;;;;;8.07;3.90;;;;;;;4.69;100.00;103177.22;4983440;28;20387;-65
2024/01/31 03:57:01;;;;;;;8.63;3.97;;;;;;;4.69;100.00;103178.09;4982279;28;20470;-64
2024/01/31 03:59:27;;;;;;;9.85;3.95;;;;;;;4.68;100.00;103181.44;4983596;28;20054;-64
2024/01/31 04:01:52;;;;;;;8.60;3.65;;;;;;;4.69;100.00;103184.94;4983773;28;20038;-64
2024/01/31 04:04:17;;;;;;;8.80;4.40;;;;;;;4.69;100.00;103177.22;4989374;28;20022;-64
2024/01/31 04:06:43;;;;;;;8.70;4.75;;;;;;;4.68;100.00;103183.09;4989751;28;20030;-64
2024/01/31 04:09:08;;;;;;;9.32;4.97;;;;;;;4.67;100.00;103178.75;4988934;28;20110;-64
2024/01/31 04:11:34;;;;;;;8.90;4.13;;;;;;;4.66;100.00;103166.63;4987666;28;20026;-64
2024/01/31 04:14:01;;;;;;;10.00;4.43;;;;;;;4.68;100.00;103171.19;4984220;28;20027;-64
2024/01/31 04:16:27;;;;;;;11.00;4.60;;;;;;;4.68;100.00;103167.69;4975725;28;20023;-64
2024/01/31 04:18:52;;;;;;;7.33;4.10;;;;;;;4.67;100.00;103164.25;4989863;28;20033;-64
2024/01/31 04:21:19;;;;;;;6.72;4.32;;;;;;;4.69;100.00;103157.56;4977260;28;20442;-64
2024/01/31 04:23:44;;;;;;;8.80;4.03;;;;;;;4.70;100.00;103173.88;4982664;28;20037;-64
2024/01/31 04:26:09;;;;;;;14.98;4.18;;;;;;;4.67;100.00;103166.81;4970157;28;20031;-64
2024/01/31 04:28:35;;;;;;;12.43;4.80;;;;;;;4.66;100.00;103176.91;4982053;28;20034;-64
2024/01/31 04:31:00;;;;;;;8.18;4.45;;;;;;;4.66;100.00;103177.81;4969574;28;20061;-64
2024/01/31 04:33:25;;;;;;;9.10;4.85;;;;;;;4.66;100.00;103169.22;4970415;28;20027;-64
2024/01/31 04:35:51;;;;;;;9.63;5.03;;;;;;;4.66;100.00;103171.78;4969560;28;20035;-64
2024/01/31 04:38:16;;;;;;;10.37;4.63;;;;;;;4.65;100.00;103169.97;4970293;28;20026;-64
2024/01/31 04:40:42;;;;;;;9.57;5.33;;;;;;;4.65;100.00;103159.72;4982675;28;20026;-64
2024/01/31 04:43:07;;;;;;;8.98;4.55;;;;;;;4.66;100.00;103171.78;4988753;28;20383;-64
2024/01/31 04:45:32;;;;;;;11.97;5.40;;;;;;;4.65;100.00;103175.13;4987190;28;20068;-64
2024/01/31 04:47:58;;;;;;;8.73;4.70;;;;;;;4.66;100.00;103169.22;4988813;28;20032;-64
2024/01/31 04:50:24;;;;;;;10.65;4.88;;;;;;;4.66;100.00;103166.63;4974550;28;20042;-64
2024/01/31 04:52:49;;;;;;;10.50;5.23;;;;;;;4.66;100.00;103176.91;4988884;28;20471;-64
2024/01/31 04:55:14;;;;;;;7.60;5.03;;;;;;;4.67;100.00;103169.38;4988220;28;20026;-64
2024/01/31 04:57:40;;;;;;;14.93;6.03;;;;;;;4.67;100.00;103163.34;4975274;28;20391;-64
2024/01/31 05:00:07;;;;;;;10.90;6.00;;;;;;;4.66;100.00;103161.50;4972119;28;20022;-64
2024/01/31 05:02:32;;;;;;;17.10;8.35;;;;;;;4.66;100.00;103166.63;4981037;28;20035;-64
2024/01/31 05:04:57;;;;;;;16.80;7.78;;;;;;;4.66;100.00;103166.63;4971983;28;20090;-64
2024/01/31 05:07:22;;;;;;;15.15;8.13;;;;;;;4.67;100.00;103158.19;4975527;28;20155;-64
2024/01/31 05:09:48;;;;;;;16.57;8.57;;;;;;;4.67;100.00;103155.63;4976826;28;20026;-64
2024/01/31 05:12:14;;;;;;;11.40;7.47;;;;;;;4.67;100.00;103168.47;4985660;28;20026;-64
2024/01/31 05:14:39;;;;;;;13.65;7.75;;;;;;;4.66;100.00;103161.50;4976694;28;20015;-64
2024/01/31 05:17:04;;;;;;;19.00;8.20;;;;;;;4.67;100.00;103160.75;4985034;28;20019;-64
2024/01/31 05:19:29;;;;;;;18.75;9.27;;;;;;;4.68;100.00;103160.00;4988116;28;20022;-64
2024/01/31 05:21:55;;;;;;;22.58;10.98;;;;;;;4.67;100.00;103163.34;4984001;28;20015;-64
2024/01/31 05:24:20;;;;;;;17.55;10.02;;;;;;;4.69;100.00;103156.69;4968234;28;20476;-64
2024/01/31 05:26:47;;;;;;;22.25;11.65;;;;;;;4.67;100.00;103158.19;4975605;28;20437;-64
2024/01/31 05:29:14;;;;;;;23.43;12.87;;;;;;;4.67;100.00;103158.19;4976091;28;20034;-64
2024/01/31 05:31:39;;;;;;;25.50;12.75;;;;;;;4.69;100.00;103161.81;4988281;28;20057;-64
2024/01/31 05:34:04;;;;;;;26.67;12.93;;;;;;;4.69;100.00;103160.13;4986752;28;20030;-64
2024/01/31 05:36:30;;;;;;;27.93;12.93;;;;;;;4.72;100.00;103156.03;4974439;28;20019;-64
2024/01/31 05:38:55;;;;;;;21.60;12.40;;;;;;;4.71;100.00;103160.28;4976474;28;20038;-64
2024/01/31 05:41:21;;;;;;;18.80;13.30;;;;;;;4.72;100.00;103162.09;4973662;28;20022;-64
2024/01/31 05:43:46;;;;;;;24.65;12.55;;;;;;;4.72;100.00;103156.03;4986434;28;20507;-64
2024/01/31 05:46:15;;;;;;;26.48;13.77;;;;;;;4.72;100.00;103162.09;4987537;28;20023;-64
2024/01/31 05:48:41;;;;;;;23.97;12.87;;;;;;;4.72;100.00;103161.19;4987318;28;20042;-64
2024/01/31 05:51:06;;;;;;;26.42;11.85;;;;;;;4.73;100.00;103158.75;4974305;28;20056;-64
2024/01/31 05:53:31;;;;;;;27.43;13.63;;;;;;;4.73;100.00;103170.72;4987727;28;20030;-64
2024/01/31 05:55:57;;;;;;;23.50;12.98;;;;;;;4.71;100.00;103155.16;4996661;28;20128;-64
2024/01/31 05:58:23;;;;;;;22.52;13.35;;;;;;;4.73;100.00;103169.03;4986812;28;20037;-64
2024/01/31 06:00:49;;;;;;;25.15;14.13;;;;;;;4.73;100.00;103163.88;4986355;28;20061;-64
2024/01/31 06:03:15;;;;;;;28.10;14.43;;;;;;;4.73;100.00;103145.91;4987307;28;20093;-64
2024/01/31 06:05:41;;;;;;;20.33;13.65;;;;;;;4.73;100.00;103152.72;4984109;28;20422;-64
2024/01/31 06:08:07;;;;;;;25.50;14.20;;;;;;;4.72;100.00;103159.53;4987385;28;20031;-64
2024/01/31 06:10:32;;;;;;;30.92;14.20;;;;;;;4.74;100.00;103165.72;4983604;28;20170;-64
2024/01/31 06:12:57;;;;;;;29.03;14.53;;;;;;;4.73;100.00;103169.03;4977684;28;20490;-64
2024/01/31 06:15:23;;;;;;;32.97;15.37;;;;;;;4.75;100.00;103169.19;4985803;28;20098;-64
2024/01/31 06:17:49;;;;;;;24.73;15.68;;;;;;;4.76;100.00;103153.00;4995957;28;20109;-64
2024/01/31 06:20:14;;;;;;;25.27;13.65;;;;;;;4.77;100.00;103159.94;4973281;28;20040;-64
2024/01/31 06:22:39;;;;;;;28.48;14.98;;;;;;;4.75;100.00;103157.22;4978319;28;20030;-64
2024/01/31 06:25:05;;;;;;;26.58;16.10;;;;;;;4.77;100.00;103154.81;4984453;28;20106;-64
2024/01/31 06:27:30;;;;;;;25.15;14.50;;;;;;;4.82;100.00;103148.44;4994815;28;20482;-64
2024/01/31 06:29:55;;;;;;;25.30;14.63;;;;;;;4.80;100.00;103139.69;4985469;28;20026;-64
2024/01/31 06:32:29;;;;;;;25.58;15.00;;;;;;;4.84;100.00;103135.75;4977368;28;21812;-64
2024/01/31 06:34:55;;;;;;;20.50;14.60;;;;;;;4.82;100.00;103138.19;4984941;28;20034;-64
2024/01/31 06:37:20;;;;;;;31.90;15.73;;;;;;;4.83;100.00;103133.91;4983358;28;20026;-64
2024/01/31 06:39:45;;;;;;;25.58;15.32;;;;;;;4.80;100.00;103130.31;4986014;28;20490;-64
2024/01/31 06:42:11;;;;;;;25.38;14.55;;;;;;;4.79;100.00;103123.38;4972191;28;20027;-64
2024/01/31 06:44:36;;;;;;;26.00;15.57;;;;;;;4.80;100.00;103125.16;4973598;28;20027;-64
2024/01/31 06:47:03;;;;;;;26.15;16.15;;;;;;;4.77;100.00;103111.13;4986148;28;20029;-64
2024/01/31 06:49:29;;;;;;;29.65;17.52;;;;;;;4.76;100.00;103102.53;4967999;28;20089;-64
2024/01/31 06:51:54;;;;;;;28.50;18.05;;;;;;;4.78;100.00;103116.44;4979349;28;20498;-64
2024/01/31 06:54:19;;;;;;;22.45;15.77;;;;;;;4.83;100.00;103110.78;4985225;28;20023;-64
2024/01/31 06:56:45;;;;;;;29.65;18.67;;;;;;;4.83;100.00;103110.78;4985204;28;20030;-64
2024/01/31 06:59:10;;;;;;;32.63;18.15;;;;;;;4.79;100.00;103112.19;4986540;28;20570;-64
2024/01/31 07:01:35;;;;;;;27.33;17.92;;;;;;;4.79;100.00;103117.31;4991800;28;20188;-64
2024/01/31 07:04:01;;;;;;;24.40;16.08;;;;;;;4.78;100.00;103115.53;4976552;28;20460;-64
2024/01/31 07:06:26;;;;;;;29.38;17.65;;;;;;;4.78;100.00;103126.72;4964829;28;20022;-64
2024/01/31 07:08:51;;;;;;;28.58;17.52;;;;;;;4.77;100.00;103134.25;4986597;28;20026;-64
2024/01/31 07:11:17;;;;;;;29.48;18.33;;;;;;;4.75;100.00;103141.81;4983979;28;20025;-64
2024/01/31 07:13:42;;;;;;;34.65;19.80;;;;;;;4.72;100.00;103154.38;4987596;28;20414;-64
2024/01/31 07:16:09;;;;;;;30.70;18.10;;;;;;;4.73;100.00;103174.16;4989435;28;20073;-64
2024/01/31 07:18:35;;;;;;;34.60;20.15;;;;;;;4.73;100.00;103183.56;4989649;28;20062;-64
2024/01/31 07:21:01;;;;;;;34.88;21.17;;;;;;;4.73;100.00;103189.56;4986832;28;20027;-64
2024/01/31 07:23:26;;;;;;;29.25;18.83;;;;;;;4.74;100.00;103185.34;4967979;28;20057;-64
2024/01/31 07:25:51;;;;;;;32.00;19.17;;;;;;;4.73;100.00;103194.72;4981010;28;20033;-64
2024/01/31 07:28:16;;;;;;;36.70;18.75;;;;;;;4.74;100.00;103206.81;4980303;28;20050;-64
2024/01/31 07:30:42;;;;;;;28.60;19.50;;;;;;;4.73;100.00;103206.69;4967455;28;20031;-64
2024/01/31 07:33:07;;;;;;;29.75;18.48;;;;;;;4.74;100.00;103206.81;4983563;28;20018;-64
2024/01/31 07:35:32;;;;;;;37.00;19.92;;;;;;;4.75;100.00;103207.72;4985638;28;20026;-65
2024/01/31 07:37:58;;;;;;;36.17;20.00;;;;;;;4.78;100.00;103206.34;4983237;28;20114;-64
2024/01/31 07:40:23;;;;;;;36.05;20.77;;;;;;;4.77;100.00;103217.38;4979485;28;20506;-64
2024/01/31 07:42:48;;;;;;;31.90;20.27;;;;;;;4.77;100.00;103219.03;4984064;28;20034;-64
2024/01/31 07:45:14;;;;;;;37.83;20.33;;;;;;;4.77;100.00;103214.81;4985874;28;20033;-64
2024/01/31 07:47:39;;;;;;;35.42;20.17;;;;;;;4.76;100.00;103215.59;4987394;28;20356;-64
2024/01/31 07:50:05;;;;;;;33.08;20.55;;;;;;;4.76;100.00;103210.44;4988228;28;20394;-64
2024/01/31 07:52:30;;;;;;;37.70;20.38;;;;;;;4.77;100.00;103211.31;4976775;28;20033;-64
2024/01/31 07:54:56;;;;;;;34.28;20.38;;;;;;;4.76;100.00;103218.16;4980941;28;20438;-64
2024/01/31 07:57:21;;;;;;;35.35;21.75;;;;;;;4.77;100.00;103219.94;4980908;28;20062;-64
2024/01/31 07:59:47;;;;;;;32.95;20.15;;;;;;;4.78;100.00;103219.19;4969664;28;20547;-64
2024/01/31 08:02:12;;;;;;;35.20;20.85;;;;;;;4.78;100.00;103218.28;4981842;28;20030;-64
2024/01/31 08:04:37;;;;;;;35.40;20.67;;;;;;;4.77;100.00;103212.22;4988687;28;20030;-64
2024/01/31 08:07:03;;;;;;;34.70;20.15;;;;;;;4.79;100.00;103215.84;4987748;28;20077;-64
2024/01/31 08:09:29;;;;;;;33.58;19.52;;;;;;;4.77;100.00;103209.66;4988168;28;20045;-64
2024/01/31 08:11:54;;;;;;;31.63;19.30;;;;;;;4.80;100.00;103211.63;4985658;28;20089;-64
2024/01/31 08:14:20;;;;;;;27.33;18.15;;;;;;;4.81;100.00;103210.84;4992025;28;20050;-64
2024/01/31 08:16:46;;;;;;;32.22;20.27;;;;;;;4.78;100.00;103203.78;4978670;28;20514;-64
2024/01/31 08:19:12;;;;;;;29.02;17.30;;;;;;;4.80;100.00;103197.09;4988582;28;20022;-64
2024/01/31 08:21:37;;;;;;;32.63;19.45;;;;;;;4.82;100.00;103193.78;4986798;28;20072;-64
2024/01/31 08:24:02;;;;;;;33.03;20.02;;;;;;;4.80;100.00;103209.06;4975911;28;20407;-64
2024/01/31 08:26:28;;;;;;;36.45;20.40;;;;;;;4.80;100.00;103212.50;4979516;28;20039;-64
2024/01/31 08:28:54;;;;;;;37.05;20.27;;;;;;;4.86;100.00;103201.00;4992388;28;20022;-64
2024/01/31 08:31:19;;;;;;;30.58;18.83;;;;;;;4.85;100.00;103194.97;4986364;28;20026;-64
2024/01/31 08:33:45;;;;;;;38.70;20.77;;;;;;;4.85;100.00;103200.13;4988708;28;20028;-64
2024/01/31 08:36:10;;;;;;;37.55;21.60;;;;;;;4.93;100.00;103203.38;4973475;28;20175;-64
2024/01/31 08:38:37;;;;;;;37.28;21.13;;;;;;;4.93;100.00;103198.25;4977894;28;20466;-64
2024/01/31 08:41:03;;;;;;;39.90;21.92;;;;;;;4.91;100.00;103194.66;4975969;28;20030;-64
2024/01/31 08:43:28;;;;;;;36.75;22.35;;;;;;;4.90;100.00;103185.13;4979033;28;20088;-64
2024/01/31 08:45:53;;;;;;;38.05;21.90;;;;;;;4.94;100.00;103182.09;4985916;28;20022;-64
2024/01/31 08:48:19;;;;;;;38.30;22.80;;;;;;;4.97;100.00;103173.72;4987201;28;20029;-64
2024/01/31 08:50:44;;;;;;;35.95;21.70;;;;;;;5.07;100.00;103170.38;4984938;28;20153;-64
2024/01/31 08:53:10;;;;;;;43.90;22.92;;;;;;;5.03;100.00;103175.22;4970586;28;20573;-64
2024/01/31 08:55:35;;;;;;;37.55;23.77;;;;;;;5.03;100.00;103167.53;4971008;28;20438;-64
2024/01/31 08:58:00;;;;;;;39.47;22.67;;;;;;;5.08;100.00;103172.16;4969684;28;20035;-64
2024/01/31 09:00:29;;;;;;;39.55;22.83;;;;;;;5.10;100.00;103170.63;4981158;28;20587;-64
2024/01/31 09:02:54;;;;;;;38.22;22.10;;;;;;;5.12;100.00;103169.13;4969148;28;20439;-64
2024/01/31 09:05:20;;;;;;;40.08;22.52;;;;;;;5.14;100.00;103162.47;4983542;28;20058;-64
2024/01/31 09:07:45;;;;;;;40.60;23.30;;;;;;;5.15;100.00;103171.97;4988940;28;20030;-64
2024/01/31 09:10:10;;;;;;;48.80;26.02;;;;;;;5.18;100.00;103169.66;4974986;28;20368;-64
2024/01/31 09:12:36;;;;;;;45.78;24.85;;;;;;;5.21;100.00;103148.50;4969607;28;20027;-64
2024/01/31 09:15:01;;;;;;;43.30;24.35;;;;;;;5.25;100.00;103148.00;4969502;28;20039;-64
2024/01/31 09:17:27;;;;;;;45.60;26.05;;;;;;;5.26;100.00;103149.81;4988054;28;20117;-64
2024/01/31 09:19:52;;;;;;;46.72;27.02;;;;;;;5.22;100.00;103143.47;4976017;28;20026;-65
2024/01/31 09:22:17;;;;;;;43.75;25.25;;;;;;;5.24;100.00;103134.25;4988400;28;20376;-64
2024/01/31 09:24:42;;;;;;;40.65;24.40;;;;;;;5.29;100.00;103134.66;4986860;28;20483;-64
2024/01/31 09:27:08;;;;;;;39.45;24.45;;;;;;;5.31;100.00;103129.69;4988054;28;20022;-64
2024/01/31 09:29:33;;;;;;;44.25;25.13;;;;;;;5.32;100.00;103121.19;4975381;28;20028;-64
2024/01/31 09:31:59;;;;;;;41.70;25.45;;;;;;;5.36;100.00;103121.59;4989290;28;20113;-64
2024/01/31 09:34:24;;;;;;;41.75;24.85;;;;;;;5.41;100.00;103112.63;4987120;28;20066;-64
2024/01/31 09:36:50;;;;;;;43.53;25.10;;;;;;;5.38;100.00;103119.16;4994799;28;20417;-64
2024/01/31 09:39:15;;;;;;;43.63;26.27;;;;;;;5.39;100.00;103110.69;4993163;28;20027;-64
2024/01/31 09:41:40;;;;;;;43.95;26.30;;;;;;;5.43;100.00;103111.88;4986821;28;20577;-64
2024/01/31 09:44:06;;;;;;;41.88;26.67;;;;;;;5.45;100.00;103113.78;4987909;28;20483;-64
2024/01/31 09:46:32;;;;;;;47.40;27.48;;;;;;;5.45;100.00;103112.91;4978877;28;20357;-64
2024/01/31 09:48:58;;;;;;;43.28;26.00;;;;;;;5.50;100.00;103107.41;4980468;28;20043;-64
2024/01/31 09:51:24;;;;;;;43.97;28.10;;;;;;;5.56;100.00;103101.91;4968050;28;20034;-64
2024/01/31 09:53:53;;;;;;;41.55;26.42;;;;;;;5.58;100.00;103100.38;4967527;28;20109;-64
2024/01/31 09:56:19;;;;;;;39.45;25.48;;;;;;;5.63;100.00;103103.38;4974713;28;20487;-64
2024/01/31 09:58:44;;;;;;;40.78;27.27;;;;;;;5.68;100.00;103091.81;4986951;28;20277;-64
2024/01/31 10:01:11;;;;;;;45.22;25.45;;;;;;;5.69;100.00;103088.47;4985894;28;20068;-64
2024/01/31 10:03:36;;;;;;;42.72;23.77;;;;;;;5.70;100.00;103092.81;4987061;28;20022;-64
2024/01/31 10:06:03;;;;;;;42.88;25.90;;;;;;;5.79;100.00;103099.56;4975435;28;20084;-64
2024/01/31 10:08:29;;;;;;;39.78;25.65;;;;;;;5.83;100.00;103101.66;4986949;28;20038;-64
2024/01/31 10:10:55;;;;;;;35.05;22.52;;;;;;;5.82;100.00;103111.03;4986308;28;20096;-64
2024/01/31 10:13:20;;;;;;;34.33;23.25;;;;;;;5.81;100.00;103113.47;4986781;28;20030;-64
2024/01/31 10:15:46;;;;;;;31.63;21.90;;;;;;;5.85;100.00;103110.38;4985447;28;20068;-64
2024/01/31 10:18:12;;;;;;;33.67;21.17;;;;;;;5.83;100.00;103122.25;4986139;28;20057;-64
2024/01/31 10:20:37;;;;;;;29.75;20.08;;;;;;;5.80;100.00;103119.38;4976079;28;20034;-64
2024/01/31 10:23:03;;;;;;;28.38;19.08;;;;;;;5.78;100.00;103119.25;4986192;28;20022;-64
2024/01/31 10:25:30;;;;;;;30.02;19.10;;;;;;;5.81;100.00;103126.34;4980653;28;20499;-64
2024/01/31 10:27:55;;;;;;;28.17;18.85;;;;;;;5.75;100.00;103125.03;4982937;28;20494;-65
2024/01/31 10:30:21;;;;;;;24.48;17.80;;;;;;;5.75;100.00;103124.13;4976699;28;20034;-64
2024/01/31 10:32:47;;;;;;;22.48;16.52;;;;;;;5.79;100.00;103136.50;4987056;28;20030;-64
2024/01/31 10:35:13;;;;;;;21.98;16.23;;;;;;;5.81;100.00;103131.50;4979843;28;20111;-64
2024/01/31 10:37:38;;;;;;;18.95;15.20;;;;;;;5.79;100.00;103121.06;4981425;28;20034;-64
2024/01/31 10:40:09;;;;;;;23.20;16.70;;;;;;;5.83;100.00;103122.25;4986874;28;20030;-64
2024/01/31 10:42:35;;;;;;;24.02;16.95;;;;;;;5.84;100.00;103124.03;4986969;28;20104;-64
2024/01/31 10:45:01;;;;;;;22.13;15.32;;;;;;;5.86;100.00;103127.66;4977187;28;20026;-64
2024/01/31 10:47:27;;;;;;;22.75;14.73;;;;;;;5.89;100.00;103133.06;4981113;28;20070;-64
2024/01/31 10:49:52;;;;;;;17.45;13.63;;;;;;;5.85;100.00;103138.69;4971596;28;20046;-64
2024/01/31 10:52:21;;;;;;;18.52;13.32;;;;;;;5.82;100.00;103131.63;4986639;28;20014;-64
2024/01/31 10:54:51;;;;;;;17.33;13.98;;;;;;;5.82;100.00;103125.56;4998307;28;20104;-64
2024/01/31 10:57:17;;;;;;;18.08;13.30;;;;;;;5.87;100.00;103119.16;4995236;28;20121;-64
2024/01/31 10:59:43;;;;;;;17.85;13.35;;;;;;;5.86;100.00;103122.50;4989932;28;20030;-64
2024/01/31 11:02:15;;;;;;;16.60;13.18;;;;;;;5.85;100.00;103115.53;4989000;28;20029;-64
2024/01/31 11:04:41;;;;;;;16.98;12.80;;;;;;;5.86;100.00;103112.22;4990669;28;20025;-64
2024/01/31 11:07:15;;;;;;;14.18;12.27;;;;;;;5.86;100.00;103101.91;4987520;28;20051;-64